createdAt,value
2023-05-23T00:01:07.166Z,44.10
2023-05-23T00:03:34.828Z,44.53
2023-05-23T00:06:04.543Z,44.57
2023-05-23T00:08:32.046Z,44.24
2023-05-23T00:10:59.501Z,44.80
2023-05-23T00:13:26.973Z,44.53
2023-05-23T00:15:54.480Z,44.09
2023-05-23T00:18:24.705Z,44.20
2023-05-23T00:20:53.209Z,46.06
2023-05-23T00:23:22.547Z,44.87
2023-05-23T00:25:53.410Z,44.99
2023-05-23T00:28:21.309Z,45.10
2023-05-23T00:30:50.036Z,44.93
2023-05-23T00:33:17.794Z,44.53
2023-05-23T00:35:45.239Z,45.32
2023-05-23T00:38:12.963Z,46.01
2023-05-23T00:40:41.730Z,44.80
2023-05-23T00:43:09.305Z,44.69
2023-05-23T00:45:36.872Z,45.53
2023-05-23T00:48:07.298Z,44.98
2023-05-23T00:50:36.173Z,45.48
2023-05-23T00:53:04.862Z,45.55
2023-05-23T00:55:32.553Z,45.54
2023-05-23T00:58:01.629Z,45.85
2023-05-23T01:00:30.275Z,46.31
2023-05-23T01:02:58.053Z,46.66
2023-05-23T01:05:25.951Z,47.33
2023-05-23T01:07:53.828Z,45.86
2023-05-23T01:10:24.311Z,46.21
2023-05-23T01:13:02.006Z,45.77
2023-05-23T01:15:37.147Z,46.25
2023-05-23T01:18:09.548Z,46.18
2023-05-23T01:20:45.078Z,46.16
2023-05-23T01:23:43.997Z,46.13
2023-05-23T01:26:26.241Z,45.78
2023-05-23T01:28:59.218Z,45.54
2023-05-23T01:31:30.834Z,46.49
2023-05-23T01:33:58.904Z,46.12
2023-05-23T01:36:26.921Z,45.76
2023-05-23T01:38:54.418Z,46.62
2023-05-23T01:41:21.992Z,45.97
2023-05-23T01:43:49.513Z,45.93
2023-05-23T01:46:18.982Z,46.77
2023-05-23T01:48:47.816Z,46.77
2023-05-23T01:51:15.659Z,46.47
2023-05-23T01:53:52.292Z,46.30
2023-05-23T01:56:21.738Z,46.56
2023-05-23T01:58:49.395Z,46.33
2023-05-23T02:01:17.084Z,46.79
2023-05-23T02:03:44.562Z,47.00
2023-05-23T02:06:12.026Z,46.66
2023-05-23T02:08:39.469Z,47.17
2023-05-23T02:11:08.815Z,46.78
2023-05-23T02:13:36.308Z,47.63
2023-05-23T02:16:04.095Z,47.31
2023-05-23T02:18:31.532Z,47.84
2023-05-23T02:20:59.116Z,47.68
2023-05-23T02:23:26.734Z,47.15
2023-05-23T02:25:54.208Z,47.21
2023-05-23T02:28:22.995Z,46.81
2023-05-23T02:30:50.511Z,47.40
2023-05-23T02:33:18.021Z,47.09
2023-05-23T02:35:45.483Z,46.98
2023-05-23T02:38:13.048Z,47.00
2023-05-23T02:40:40.487Z,47.49
2023-05-23T02:43:07.928Z,47.65
2023-05-23T02:45:36.799Z,47.58
2023-05-23T02:48:04.301Z,48.42
2023-05-23T02:50:31.913Z,47.85
2023-05-23T02:52:59.357Z,47.48
2023-05-23T02:55:26.879Z,47.33
2023-05-23T02:57:54.329Z,48.73
2023-05-23T03:00:21.816Z,47.55
2023-05-23T03:02:50.630Z,47.52
2023-05-23T03:05:18.353Z,48.14
2023-05-23T03:07:45.939Z,48.66
2023-05-23T03:10:13.512Z,49.15
2023-05-23T03:12:41.076Z,50.81
2023-05-23T03:15:09.447Z,50.85
2023-05-23T03:17:37.192Z,50.43
2023-05-23T03:20:09.827Z,49.84
2023-05-23T03:22:37.511Z,48.92
2023-05-23T03:25:05.913Z,48.48
2023-05-23T03:27:33.466Z,48.94
2023-05-23T03:30:01.005Z,49.37
2023-05-23T03:32:28.581Z,49.21
2023-05-23T03:34:56.355Z,50.57
2023-05-23T03:37:25.307Z,49.87
2023-05-23T03:39:52.822Z,48.64
2023-05-23T03:42:20.361Z,48.75
2023-05-23T03:44:47.867Z,50.25
2023-05-23T03:47:15.372Z,49.73
2023-05-23T03:49:42.930Z,50.82
2023-05-23T03:52:10.445Z,49.99
2023-05-23T03:54:39.333Z,51.66
2023-05-23T03:57:07.069Z,51.73
2023-05-23T03:59:35.134Z,50.69
2023-05-23T04:02:02.709Z,52.61
2023-05-23T04:04:31.105Z,51.05
2023-05-23T04:06:59.148Z,51.63
2023-05-23T04:09:26.672Z,50.97
2023-05-23T04:11:56.097Z,51.92
2023-05-23T04:14:25.341Z,52.02
2023-05-23T04:16:52.845Z,51.91
2023-05-23T04:19:20.809Z,51.58
2023-05-23T04:21:48.263Z,51.78
2023-05-23T04:24:15.749Z,52.39
2023-05-23T04:26:43.396Z,51.71
2023-05-23T04:29:12.554Z,50.85
2023-05-23T04:31:40.041Z,51.22
2023-05-23T04:34:08.086Z,50.54
2023-05-23T04:36:38.027Z,50.91
2023-05-23T04:39:05.585Z,52.47
2023-05-23T04:41:33.226Z,52.57
2023-05-23T04:44:00.692Z,51.58
2023-05-23T04:46:29.439Z,51.00
2023-05-23T04:48:58.717Z,51.59
2023-05-23T04:51:26.190Z,50.93
2023-05-23T04:53:53.628Z,51.52
2023-05-23T04:56:22.327Z,51.97
2023-05-23T04:58:49.794Z,51.86
2023-05-23T05:01:17.401Z,51.60
2023-05-23T05:03:46.243Z,52.16
2023-05-23T05:06:14.580Z,52.29
2023-05-23T05:08:42.069Z,52.23
2023-05-23T05:11:10.384Z,51.85
2023-05-23T05:13:37.821Z,51.83
2023-05-23T05:16:05.630Z,51.89
2023-05-23T05:18:33.215Z,51.20
2023-05-23T05:21:01.959Z,51.75
2023-05-23T05:23:30.199Z,51.96
2023-05-23T05:25:57.778Z,52.41
2023-05-23T05:28:25.344Z,52.31
2023-05-23T05:30:54.390Z,52.16
2023-05-23T05:33:23.592Z,52.53
2023-05-23T05:35:52.266Z,55.52
2023-05-23T05:38:21.143Z,56.28
2023-05-23T05:40:48.555Z,54.97
2023-05-23T05:43:16.038Z,55.16
2023-05-23T05:45:43.656Z,55.44
2023-05-23T05:48:11.851Z,55.40
2023-05-23T05:50:39.898Z,55.45
2023-05-23T05:53:08.208Z,55.74
2023-05-23T05:55:36.998Z,56.03
2023-05-23T05:58:04.468Z,56.08
2023-05-23T06:00:32.064Z,55.04
2023-05-23T06:02:59.715Z,55.64
2023-05-23T06:05:27.522Z,55.37
2023-05-23T06:07:54.984Z,55.41
2023-05-23T06:10:22.437Z,55.00
2023-05-23T06:12:51.344Z,55.39
2023-05-23T06:15:19.140Z,54.64
2023-05-23T06:17:46.609Z,54.38
2023-05-23T06:20:14.204Z,53.56
2023-05-23T06:22:42.216Z,54.23
2023-05-23T06:25:10.094Z,54.26
2023-05-23T06:27:38.097Z,53.47
2023-05-23T06:30:08.219Z,54.04
2023-05-23T06:32:35.645Z,52.69
2023-05-23T06:35:03.186Z,53.31
2023-05-23T06:37:30.817Z,53.08
2023-05-23T06:39:58.473Z,53.66
2023-05-23T06:42:25.905Z,53.46
2023-05-23T06:44:53.356Z,54.20
2023-05-23T06:47:23.242Z,55.23
2023-05-23T06:49:50.762Z,55.86
2023-05-23T06:52:18.169Z,60.52
2023-05-23T06:54:45.627Z,63.52
2023-05-23T06:57:13.066Z,64.36
2023-05-23T06:59:40.563Z,61.87
2023-05-23T07:02:07.988Z,61.83
2023-05-23T07:04:36.748Z,60.35
2023-05-23T07:07:04.312Z,60.74
2023-05-23T07:09:31.786Z,59.36
2023-05-23T07:11:59.275Z,58.18
2023-05-23T07:14:26.690Z,57.75
2023-05-23T07:16:54.229Z,58.68
2023-05-23T07:19:21.747Z,58.29
2023-05-23T07:21:50.650Z,56.35
2023-05-23T07:24:18.079Z,54.69
2023-05-23T07:26:45.732Z,53.42
2023-05-23T07:29:13.172Z,54.85
2023-05-23T07:31:40.787Z,53.81
2023-05-23T07:34:08.320Z,53.04
2023-05-23T07:36:37.885Z,52.21
2023-05-23T07:39:07.003Z,52.63
2023-05-23T07:41:34.488Z,54.64
2023-05-23T07:44:01.938Z,55.15
2023-05-23T07:46:29.436Z,55.68
2023-05-23T07:48:57.148Z,54.69
2023-05-23T07:51:24.749Z,55.88
2023-05-23T07:53:52.271Z,57.39
2023-05-23T07:56:21.403Z,56.03
2023-05-23T07:58:48.848Z,56.84
2023-05-23T08:01:16.271Z,57.05
2023-05-23T08:03:43.695Z,57.33
2023-05-23T08:06:11.168Z,56.02
2023-05-23T08:08:38.733Z,57.28
2023-05-23T08:11:06.532Z,57.47
2023-05-23T08:13:35.607Z,58.18
2023-05-23T08:16:03.189Z,58.28
2023-05-23T08:18:31.142Z,59.75
2023-05-23T08:20:58.708Z,57.91
2023-05-23T08:23:26.433Z,58.17
2023-05-23T08:25:53.898Z,58.16
2023-05-23T08:28:21.368Z,59.11
2023-05-23T08:30:50.279Z,58.66
2023-05-23T08:33:17.740Z,60.11
2023-05-23T08:35:45.272Z,59.47
2023-05-23T08:38:13.128Z,57.37
2023-05-23T08:40:43.331Z,58.07
2023-05-23T08:43:12.408Z,57.33
2023-05-23T08:45:40.202Z,56.39
2023-05-23T08:48:11.788Z,57.78
2023-05-23T08:50:41.781Z,59.33
2023-05-23T08:53:10.713Z,58.96
2023-05-23T08:55:39.170Z,56.32
2023-05-23T08:58:07.245Z,55.13
2023-05-23T09:00:35.512Z,55.16
2023-05-23T09:03:03.379Z,59.12
2023-05-23T09:05:32.279Z,59.88
2023-05-23T09:07:59.794Z,60.68
2023-05-23T09:10:29.916Z,60.92
2023-05-23T09:12:58.412Z,60.08
2023-05-23T09:15:27.394Z,59.85
2023-05-23T09:17:54.986Z,58.58
2023-05-23T09:20:23.024Z,62.37
2023-05-23T09:22:51.855Z,62.11
2023-05-23T09:25:19.382Z,59.40
2023-05-23T09:27:48.338Z,58.44
2023-05-23T09:30:18.790Z,59.81
2023-05-23T09:33:00.219Z,60.06
2023-05-23T09:35:30.119Z,59.58
2023-05-23T09:38:00.220Z,60.92
2023-05-23T09:40:31.655Z,62.36
2023-05-23T09:43:03.993Z,62.60
2023-05-23T09:45:32.422Z,64.24
2023-05-23T09:48:00.006Z,63.76
2023-05-23T09:50:33.394Z,62.47
2023-05-23T09:53:02.677Z,63.16
2023-05-23T09:55:30.213Z,63.11
2023-05-23T09:58:00.265Z,64.08
2023-05-23T10:00:28.492Z,63.88
2023-05-23T10:03:01.666Z,64.56
2023-05-23T10:05:34.276Z,63.80
2023-05-23T10:08:07.362Z,65.73
2023-05-23T10:10:36.310Z,65.61
2023-05-23T10:13:06.640Z,61.91
2023-05-23T10:15:40.120Z,64.61
2023-05-23T10:18:13.911Z,64.58
2023-05-23T10:20:46.833Z,65.88
2023-05-23T10:23:17.301Z,64.73
2023-05-23T10:25:45.364Z,62.49
2023-05-23T10:28:14.729Z,62.63
2023-05-23T10:30:42.411Z,63.90
2023-05-23T10:33:11.689Z,65.18
2023-05-23T10:35:49.321Z,65.30
2023-05-23T10:38:31.815Z,69.45
2023-05-23T10:41:07.884Z,71.87
2023-05-23T10:43:41.829Z,71.64
2023-05-23T10:46:09.575Z,69.30
2023-05-23T10:48:42.593Z,68.26
2023-05-23T10:51:11.250Z,67.54
2023-05-23T10:53:42.262Z,67.27
2023-05-23T10:56:11.457Z,70.45
2023-05-23T10:58:40.778Z,69.29
2023-05-23T11:01:09.990Z,67.86
2023-05-23T11:03:39.265Z,68.24
2023-05-23T11:06:07.401Z,74.19
2023-05-23T11:08:47.543Z,73.70
2023-05-23T11:11:16.148Z,73.22
2023-05-23T11:14:00.147Z,72.71
2023-05-23T11:16:29.420Z,70.80
2023-05-23T11:19:29.018Z,71.95
2023-05-23T11:21:59.461Z,72.47
2023-05-23T11:24:51.412Z,73.10
2023-05-23T11:27:26.524Z,74.39
2023-05-23T11:30:01.829Z,72.76
2023-05-23T11:32:31.702Z,73.99
2023-05-23T11:35:02.865Z,72.87
2023-05-23T11:37:31.370Z,71.75
2023-05-23T11:40:02.062Z,72.19
2023-05-23T11:42:29.554Z,72.36
2023-05-23T11:44:58.148Z,70.80
2023-05-23T11:47:25.720Z,73.14
2023-05-23T11:49:53.581Z,70.67
2023-05-23T11:52:21.072Z,71.15
2023-05-23T11:54:48.501Z,72.45
2023-05-23T11:57:17.282Z,72.34
2023-05-23T11:59:45.653Z,71.07
2023-05-23T12:02:13.128Z,73.17
2023-05-23T12:04:41.170Z,73.82
2023-05-23T12:07:08.813Z,74.77
2023-05-23T12:09:43.654Z,71.39
2023-05-23T12:12:11.566Z,75.77
2023-05-23T12:14:44.539Z,77.69
2023-05-23T12:17:13.550Z,77.15
2023-05-23T12:19:46.241Z,77.00
2023-05-23T12:22:13.710Z,75.43
2023-05-23T12:24:46.680Z,77.16
2023-05-23T12:27:14.179Z,78.01
2023-05-23T12:29:42.952Z,77.66
2023-05-23T12:32:10.493Z,78.75
2023-05-23T12:34:42.575Z,76.77
2023-05-23T12:37:19.459Z,78.27
2023-05-23T12:39:47.942Z,77.64
2023-05-23T12:42:15.527Z,80.47
2023-05-23T12:44:45.950Z,78.64
2023-05-23T12:47:13.567Z,78.95
2023-05-23T12:49:41.151Z,79.44
2023-05-23T12:52:08.693Z,80.59
2023-05-23T12:54:36.164Z,81.48
2023-05-23T12:57:03.727Z,80.57
2023-05-23T12:59:31.314Z,76.62
2023-05-23T13:02:01.430Z,78.22
2023-05-23T13:04:31.040Z,78.02
2023-05-23T13:06:59.583Z,79.10
2023-05-23T13:09:27.136Z,81.49
2023-05-23T13:11:55.617Z,77.73
2023-05-23T13:14:23.044Z,81.73
2023-05-23T13:16:50.648Z,83.75
2023-05-23T13:19:19.573Z,83.07
2023-05-23T13:21:49.357Z,85.30
2023-05-23T13:24:17.774Z,85.08
2023-05-23T13:26:45.394Z,84.22
2023-05-23T13:29:13.173Z,85.90
2023-05-23T13:31:40.640Z,85.12
2023-05-23T13:34:08.120Z,85.71
2023-05-23T13:36:36.904Z,82.93
2023-05-23T13:39:07.549Z,83.53
2023-05-23T13:41:34.996Z,82.27
2023-05-23T13:44:02.541Z,84.20
2023-05-23T13:46:30.044Z,83.25
2023-05-23T13:48:57.575Z,83.71
2023-05-23T13:51:25.130Z,83.75
2023-05-23T13:53:53.944Z,84.06
2023-05-23T13:56:21.480Z,82.84
2023-05-23T13:58:48.933Z,83.34
2023-05-23T14:01:17.290Z,83.48
2023-05-23T14:03:44.811Z,83.00
2023-05-23T14:06:12.225Z,82.10
2023-05-23T14:08:39.756Z,82.15
2023-05-23T14:11:09.111Z,83.67
2023-05-23T14:13:36.643Z,82.59
2023-05-23T14:16:04.180Z,82.92
2023-05-23T14:18:31.658Z,84.19
2023-05-23T14:20:59.115Z,84.44
2023-05-23T14:23:26.562Z,85.42
2023-05-23T14:25:54.049Z,84.87
2023-05-23T14:28:22.831Z,83.92
2023-05-23T14:30:50.396Z,84.80
2023-05-23T14:33:18.625Z,84.14
2023-05-23T14:35:46.262Z,85.61
2023-05-23T14:38:13.760Z,87.54
2023-05-23T14:40:41.334Z,86.18
2023-05-23T14:43:08.774Z,88.57
2023-05-23T14:45:37.598Z,85.25
2023-05-23T14:48:06.036Z,88.06
2023-05-23T14:50:33.689Z,89.88
2023-05-23T14:53:01.179Z,90.86
2023-05-23T14:55:28.778Z,92.55
2023-05-23T14:57:56.621Z,92.61
2023-05-23T15:00:25.736Z,91.11
2023-05-23T15:02:54.670Z,91.79
2023-05-23T15:05:22.411Z,91.81
2023-05-23T15:07:49.895Z,94.10
2023-05-23T15:10:17.428Z,92.51
2023-05-23T15:12:44.916Z,92.75
2023-05-23T15:15:12.761Z,90.81
2023-05-23T15:17:40.339Z,91.19
2023-05-23T15:20:10.232Z,89.24
2023-05-23T15:22:39.707Z,88.71
2023-05-23T15:25:08.582Z,89.74
2023-05-23T15:27:36.347Z,90.49
2023-05-23T15:30:04.705Z,88.98
2023-05-23T15:32:32.214Z,89.80
2023-05-23T15:34:59.753Z,89.57
2023-05-23T15:37:28.511Z,88.98
2023-05-23T15:39:56.042Z,89.46
2023-05-23T15:42:23.455Z,89.10
2023-05-23T15:44:51.062Z,88.36
2023-05-23T15:47:20.638Z,89.72
2023-05-23T15:49:48.183Z,90.50
2023-05-23T15:52:15.672Z,92.33
2023-05-23T15:54:44.465Z,94.90
2023-05-23T15:57:11.934Z,95.12
2023-05-23T15:59:40.391Z,94.93
2023-05-23T16:02:10.157Z,94.76
2023-05-23T16:04:38.881Z,94.14
2023-05-23T16:07:06.469Z,92.96
2023-05-23T16:09:34.029Z,93.54
2023-05-23T16:12:02.790Z,93.30
2023-05-23T16:14:31.299Z,94.20
2023-05-23T16:17:02.750Z,93.82
2023-05-23T16:19:30.624Z,93.62
2023-05-23T16:21:58.260Z,92.42
2023-05-23T16:24:28.170Z,92.43
2023-05-23T16:26:55.921Z,92.56
2023-05-23T16:29:24.742Z,92.30
2023-05-23T16:31:52.290Z,91.38
2023-05-23T16:34:19.814Z,90.90
2023-05-23T16:36:47.412Z,93.48
2023-05-23T16:39:16.216Z,95.84
2023-05-23T16:41:43.714Z,97.28
2023-05-23T16:44:11.268Z,97.46
2023-05-23T16:46:40.318Z,99.08
2023-05-23T16:49:08.368Z,99.81
2023-05-23T16:51:35.886Z,99.93
2023-05-23T16:54:03.828Z,100.00
2023-05-23T16:56:31.263Z,99.20
2023-05-23T16:58:58.704Z,99.73
2023-05-23T17:01:26.609Z,99.68
2023-05-23T17:03:56.787Z,97.97
2023-05-23T17:06:24.444Z,98.19
2023-05-23T17:08:52.082Z,98.54
2023-05-23T17:11:19.644Z,100.00
2023-05-23T17:13:47.089Z,89.35
2023-05-23T17:16:18.037Z,85.85
2023-05-23T17:18:47.671Z,82.27
2023-05-23T17:21:16.521Z,82.03
2023-05-23T17:23:44.140Z,81.74
2023-05-23T17:26:11.796Z,84.82
2023-05-23T17:28:39.424Z,89.63
2023-05-23T17:31:07.694Z,89.87
2023-05-23T17:33:35.159Z,90.36
2023-05-23T17:36:03.493Z,90.54
2023-05-23T17:38:32.310Z,89.64
2023-05-23T17:41:00.503Z,88.95
2023-05-23T17:43:27.951Z,88.42
2023-05-23T17:45:56.722Z,88.24
2023-05-23T17:48:38.206Z,88.59
2023-05-23T17:51:13.026Z,89.08
2023-05-23T17:53:42.217Z,87.50
2023-05-23T17:56:10.289Z,87.61
2023-05-23T17:58:38.768Z,88.00
2023-05-23T18:01:07.755Z,88.64
2023-05-23T18:03:35.311Z,89.03
2023-05-23T18:06:02.773Z,89.75
2023-05-23T18:08:30.243Z,89.78
2023-05-23T18:10:59.011Z,91.77
2023-05-23T18:13:26.553Z,92.00
2023-05-23T18:15:54.004Z,91.71
2023-05-23T18:18:21.503Z,91.56
2023-05-23T18:20:48.996Z,91.01
2023-05-23T18:23:17.509Z,90.63
2023-05-23T18:25:44.998Z,91.28
2023-05-23T18:28:13.982Z,90.81
2023-05-23T18:30:41.624Z,89.81
2023-05-23T18:33:09.478Z,89.61
2023-05-23T18:35:37.089Z,89.16
2023-05-23T18:38:04.565Z,87.85
2023-05-23T18:40:32.214Z,87.83
2023-05-23T18:42:59.688Z,88.69
2023-05-23T18:45:28.422Z,85.82
2023-05-23T18:47:56.361Z,86.87
2023-05-23T18:50:24.242Z,86.62
2023-05-23T18:52:51.707Z,87.49
2023-05-23T18:55:20.170Z,85.75
2023-05-23T18:57:47.635Z,86.63
2023-05-23T19:00:16.045Z,85.86
2023-05-23T19:02:45.774Z,84.54
2023-05-23T19:05:13.801Z,86.03
2023-05-23T19:07:41.217Z,85.13
2023-05-23T19:10:09.418Z,85.40
2023-05-23T19:12:38.760Z,83.54
2023-05-23T19:15:09.217Z,85.52
2023-05-23T19:17:36.791Z,86.29
2023-05-23T19:20:06.497Z,86.64
2023-05-23T19:22:47.024Z,86.46
2023-05-23T19:25:18.333Z,84.34
2023-05-23T19:27:45.858Z,85.17
2023-05-23T19:30:13.662Z,85.51
2023-05-23T19:32:41.230Z,85.27
2023-05-23T19:35:10.598Z,83.65
2023-05-23T19:37:38.142Z,84.72
2023-05-23T19:40:07.123Z,85.88
2023-05-23T19:42:34.675Z,83.59
2023-05-23T19:45:02.315Z,83.65
2023-05-23T19:47:30.957Z,82.32
2023-05-23T19:49:58.542Z,83.59
2023-05-23T19:52:27.300Z,82.13
2023-05-23T19:54:54.746Z,83.55
2023-05-23T19:57:22.297Z,83.14
2023-05-23T19:59:49.781Z,83.02
2023-05-23T20:02:17.555Z,84.49
2023-05-23T20:04:45.627Z,82.95
2023-05-23T20:07:13.273Z,81.77
2023-05-23T20:09:42.244Z,81.47
2023-05-23T20:12:09.830Z,81.83
2023-05-23T20:14:37.353Z,82.12
2023-05-23T20:17:04.909Z,80.15
2023-05-23T20:19:32.437Z,81.30
2023-05-23T20:21:59.896Z,78.59
2023-05-23T20:24:30.384Z,78.94
2023-05-23T20:27:01.391Z,78.54
2023-05-23T20:29:28.858Z,76.73
2023-05-23T20:31:57.647Z,77.71
2023-05-23T20:34:25.190Z,76.47
2023-05-23T20:36:53.256Z,76.25
2023-05-23T20:39:22.118Z,76.53
2023-05-23T20:41:50.062Z,75.74
2023-05-23T20:44:18.920Z,75.88
2023-05-23T20:46:47.436Z,77.06
2023-05-23T20:49:15.694Z,75.74
2023-05-23T20:51:43.825Z,75.26
2023-05-23T20:54:12.820Z,76.35
2023-05-23T20:56:40.481Z,76.66
2023-05-23T20:59:08.169Z,74.81
2023-05-23T21:01:37.032Z,74.19
2023-05-23T21:04:04.583Z,75.07
2023-05-23T21:06:32.544Z,74.39
2023-05-23T21:09:00.056Z,74.66
2023-05-23T21:11:27.498Z,74.95
2023-05-23T21:13:55.333Z,75.39
2023-05-23T21:16:22.864Z,74.57
2023-05-23T21:18:51.896Z,74.73
2023-05-23T21:21:19.395Z,73.99
2023-05-23T21:23:46.861Z,73.29
2023-05-23T21:26:14.380Z,74.08
2023-05-23T21:28:41.886Z,73.40
2023-05-23T21:31:10.055Z,73.25
2023-05-23T21:33:37.508Z,72.38
2023-05-23T21:36:06.490Z,72.48
2023-05-23T21:38:37.378Z,72.33
2023-05-23T21:41:05.013Z,73.91
2023-05-23T21:43:32.438Z,72.75
2023-05-23T21:45:59.977Z,72.79
2023-05-23T21:48:27.485Z,72.07
2023-05-23T21:50:54.933Z,72.09
2023-05-23T21:53:23.717Z,71.95
2023-05-23T21:55:51.289Z,71.11
2023-05-23T21:58:18.781Z,72.09
2023-05-23T22:00:46.554Z,72.85
2023-05-23T22:03:14.058Z,72.96
2023-05-23T22:05:41.551Z,71.08
2023-05-23T22:08:09.009Z,72.48
2023-05-23T22:10:37.799Z,72.17
2023-05-23T22:13:05.283Z,71.79
2023-05-23T22:15:33.328Z,72.00
2023-05-23T22:18:00.777Z,72.37
2023-05-23T22:20:29.684Z,72.84
2023-05-23T22:22:57.154Z,73.37
2023-05-23T22:25:25.017Z,73.48
2023-05-23T22:27:53.768Z,72.98
2023-05-23T22:30:21.212Z,72.52
2023-05-23T22:32:48.694Z,71.90
2023-05-23T22:35:16.225Z,72.44
2023-05-23T22:37:43.621Z,72.36
2023-05-23T22:40:11.298Z,71.29
2023-05-23T22:42:39.911Z,71.33
2023-05-23T22:45:10.290Z,73.01
2023-05-23T22:47:37.732Z,73.01
2023-05-23T22:50:05.469Z,70.81
2023-05-23T22:52:34.540Z,71.89
2023-05-23T22:55:01.973Z,71.36
2023-05-23T22:57:29.418Z,70.35
2023-05-23T22:59:56.857Z,77.92
2023-05-23T23:02:25.770Z,73.96
2023-05-23T23:04:53.374Z,73.29
2023-05-23T23:07:20.860Z,70.72
2023-05-23T23:09:49.137Z,69.76
2023-05-23T23:12:16.700Z,69.96
2023-05-23T23:14:44.255Z,67.64
2023-05-23T23:17:13.557Z,67.42
2023-05-23T23:19:42.397Z,68.79
2023-05-23T23:22:09.832Z,70.94
2023-05-23T23:24:37.252Z,67.80
2023-05-23T23:27:05.364Z,68.18
2023-05-23T23:29:32.902Z,69.71
2023-05-23T23:32:00.811Z,68.97
2023-05-23T23:34:28.295Z,69.05
2023-05-23T23:36:57.489Z,67.50
2023-05-23T23:39:24.928Z,67.69
2023-05-23T23:41:52.376Z,67.18
2023-05-23T23:44:19.777Z,69.78
2023-05-23T23:46:47.325Z,68.42
2023-05-23T23:49:15.260Z,69.12
2023-05-23T23:51:42.700Z,69.42
2023-05-23T23:54:11.454Z,69.17
2023-05-23T23:56:38.892Z,68.66
2023-05-23T23:59:06.532Z,71.27
